Time;durP1;ratioP1;P1;durP2;ratioP2;P2;SDS_P1;SDS_P2;PMS_P1;PMS_P2;Temp;Humidity;BMP_temperature;BMP_pressure;BME280_temperature;BME280_humidity;BME280_pressure;Samples;Min_cycle;Max_cycle;Signal;HPM_P1;HPM_P2
2022/03/21 00:00:27;;;;;;;;;;;;;;;-2.48;50.62;99844.27;1728870;83;21000;-81
2022/03/21 00:02:57;;;;;;;36.83;16.67;;;;;;;-2.49;50.28;99842.06;1726301;83;20100;-81
2022/03/21 00:05:25;;;;;;;37.53;18.17;;;;;;;-2.60;53.46;99843.20;1718366;83;21108;-82
2022/03/21 00:07:52;;;;;;;38.55;17.73;;;;;;;-2.69;54.00;99848.80;1697206;84;21008;-81
2022/03/21 00:10:18;;;;;;;40.00;17.50;;;;;;;-2.78;52.64;99846.62;1697211;84;21024;-81
2022/03/21 00:12:45;;;;;;;37.08;17.30;;;;;;;-2.78;52.18;99849.21;1697158;84;21461;-81
2022/03/21 00:15:13;;;;;;;38.25;17.57;;;;;;;-2.81;51.91;99836.97;1697389;83;21080;-81
2022/03/21 00:17:40;;;;;;;34.40;16.52;;;;;;;-2.87;53.94;99849.58;1679981;84;21024;-81
2022/03/21 00:20:10;;;;;;;37.85;17.10;;;;;;;-2.83;52.78;99849.37;1697857;84;21025;-81
2022/03/21 00:22:39;;;;;;;35.58;17.05;;;;;;;-2.82;52.17;99848.55;1697994;84;21001;-81
2022/03/21 00:25:06;;;;;;;34.45;17.42;;;;;;;-2.82;51.88;99846.83;1697884;84;21094;-82
2022/03/21 00:27:34;;;;;;;35.70;16.60;;;;;;;-2.86;51.82;99847.47;1692767;84;21025;-81
2022/03/21 00:30:05;;;;;;;34.92;16.60;;;;;;;-2.90;52.18;99843.34;1669790;85;21008;-81
2022/03/21 00:32:32;;;;;;;37.93;16.82;;;;;;;-2.94;52.41;99844.89;1669851;86;21005;-81
2022/03/21 00:34:59;;;;;;;35.92;17.75;;;;;;;-2.96;52.40;99844.80;1670806;83;21460;-81
2022/03/21 00:37:26;;;;;;;34.23;16.55;;;;;;;-2.95;52.14;99847.00;1692241;84;21070;-81
2022/03/21 00:39:53;;;;;;;36.30;16.73;;;;;;;-3.02;52.97;99843.56;1697899;84;21085;-81
2022/03/21 00:42:21;;;;;;;40.55;17.52;;;;;;;-3.08;52.83;99843.72;1697885;84;21450;-82
2022/03/21 00:44:48;;;;;;;38.48;15.80;;;;;;;-3.04;52.86;99847.36;1697694;84;21017;-82
2022/03/21 00:47:16;;;;;;;37.85;16.87;;;;;;;-3.06;52.62;99851.59;1677492;84;21072;-82
2022/03/21 00:49:44;;;;;;;33.90;16.55;;;;;;;-3.11;53.46;99851.31;1669764;85;20997;-81
2022/03/21 00:52:11;;;;;;;40.70;15.58;;;;;;;-3.14;53.13;99847.67;1669504;86;21052;-81
2022/03/21 00:54:37;;;;;;;31.00;14.70;;;;;;;-3.24;52.91;99848.87;1668848;85;21075;-81
2022/03/21 00:57:04;;;;;;;34.30;16.20;;;;;;;-3.27;52.97;99837.92;1669820;85;21056;-82
2022/03/21 00:59:31;;;;;;;33.00;15.18;;;;;;;-3.32;52.98;99836.36;1693295;84;21446;-82
2022/03/21 01:01:58;;;;;;;39.30;16.02;;;;;;;-3.31;53.12;99836.84;1697604;84;21459;-82
2022/03/21 01:04:24;;;;;;;34.23;15.78;;;;;;;-3.27;53.24;99834.42;1698027;84;21072;-82
2022/03/21 01:06:51;;;;;;;31.90;15.45;;;;;;;-3.31;53.33;99831.65;1697904;84;21036;-83
2022/03/21 01:09:17;;;;;;;35.03;15.95;;;;;;;-3.35;53.45;99840.09;1697826;84;21107;-83
2022/03/21 01:11:45;;;;;;;31.65;15.35;;;;;;;-3.39;53.43;99829.45;1674988;84;21053;-83
2022/03/21 01:14:13;;;;;;;35.15;15.55;;;;;;;-3.41;53.46;99833.66;1669864;86;21450;-83
2022/03/21 01:16:40;;;;;;;31.35;14.58;;;;;;;-3.41;53.84;99831.08;1685744;84;21501;-83
2022/03/21 01:19:07;;;;;;;24.00;13.10;;;;;;;-3.47;53.80;99823.44;1699819;84;20999;-82
2022/03/21 01:21:34;;;;;;;35.88;15.35;;;;;;;-3.50;53.85;99827.53;1673594;85;21032;-82
2022/03/21 01:24:01;;;;;;;32.10;15.32;;;;;;;-3.55;53.98;99822.49;1697823;84;21001;-82
2022/03/21 01:26:28;;;;;;;33.30;14.93;;;;;;;-3.64;53.98;99824.17;1701517;84;21017;-82
2022/03/21 01:28:56;;;;;;;30.02;14.60;;;;;;;-3.66;56.05;99819.31;1701491;84;21055;-82
2022/03/21 01:31:23;;;;;;;33.10;14.87;;;;;;;-3.68;54.67;99820.91;1699284;84;21017;-82
2022/03/21 01:33:51;;;;;;;28.75;14.90;;;;;;;-3.73;54.69;99818.07;1700808;84;21044;-82
2022/03/21 01:36:17;;;;;;;28.42;13.80;;;;;;;-3.77;54.81;99818.30;1701366;84;21454;-83
2022/03/21 01:38:44;;;;;;;30.60;14.18;;;;;;;-3.81;54.82;99815.05;1701577;84;21040;-82
2022/03/21 01:41:11;;;;;;;31.15;13.85;;;;;;;-3.81;54.96;99814.14;1700700;84;21458;-83
2022/03/21 01:44:01;;;;;;;25.77;12.80;;;;;;;-3.83;55.35;99814.04;1701450;84;21032;-83
2022/03/21 01:46:28;;;;;;;26.50;13.72;;;;;;;-3.84;55.03;99816.15;1701634;84;21025;-82
2022/03/21 01:48:56;;;;;;;30.80;14.68;;;;;;;-3.85;55.43;99816.95;1701653;84;21028;-81
2022/03/21 01:51:25;;;;;;;28.70;13.78;;;;;;;-3.85;55.28;99821.72;1701166;84;21017;-79
2022/03/21 01:56:44;;;;;;;28.27;13.80;;;;;;;-3.86;55.54;99821.23;1701481;84;21049;-81
2022/03/21 01:59:14;;;;;;;31.02;14.00;;;;;;;-3.86;55.21;99819.94;1701262;84;21438;-80
2022/03/21 02:01:42;;;;;;;28.02;13.50;;;;;;;-3.80;55.41;99823.69;1690573;84;21087;-80
2022/03/21 02:04:10;;;;;;;28.77;13.35;;;;;;;-3.81;56.12;99817.63;1673219;86;21047;-81
2022/03/21 02:06:38;;;;;;;29.18;13.55;;;;;;;-3.81;55.46;99817.63;1673178;85;21021;-82
2022/03/21 02:09:07;;;;;;;25.50;12.30;;;;;;;-3.82;55.43;99826.61;1673243;85;21517;-82
2022/03/21 02:11:35;;;;;;;25.17;13.62;;;;;;;-3.88;55.75;99825.84;1673137;85;21039;-82
2022/03/21 02:14:06;;;;;;;30.25;14.07;;;;;;;-3.97;55.93;99818.44;1690829;84;21426;-82
2022/03/21 02:16:36;;;;;;;32.28;13.40;;;;;;;-4.05;55.73;99831.33;1698201;84;21025;-82
2022/03/21 02:19:17;;;;;;;28.70;13.85;;;;;;;-4.08;55.86;99830.75;1697680;84;21000;-82
2022/03/21 02:22:14;;;;;;;27.70;13.40;;;;;;;-4.11;55.98;99835.77;1697942;84;21471;-82
2022/03/21 02:25:18;;;;;;;29.12;14.47;;;;;;;-4.15;56.03;99825.60;1696515;84;21115;-82
2022/03/21 02:27:47;;;;;;;31.25;12.53;;;;;;;-4.19;56.34;99827.94;1697848;84;21525;-82
2022/03/21 02:30:15;;;;;;;29.00;13.90;;;;;;;-4.25;56.45;99823.28;1697942;84;21005;-82
2022/03/21 02:32:43;;;;;;;26.20;12.07;;;;;;;-4.28;56.67;99827.88;1697814;84;21036;-82
2022/03/21 02:35:10;;;;;;;27.25;13.95;;;;;;;-4.31;56.58;99833.27;1690933;83;21445;-82
2022/03/21 02:37:38;;;;;;;30.35;13.20;;;;;;;-4.35;56.79;99836.09;1685025;84;21427;-82
2022/03/21 02:40:10;;;;;;;30.68;13.68;;;;;;;-4.38;56.87;99829.42;1697811;84;21521;-81
2022/03/21 02:42:36;;;;;;;26.82;13.00;;;;;;;-4.38;56.94;99827.73;1697968;84;20996;-81
2022/03/21 02:45:05;;;;;;;28.20;12.50;;;;;;;-4.44;57.08;99831.23;1693347;84;21441;-81
2022/03/21 02:47:32;;;;;;;31.68;13.78;;;;;;;-4.42;57.14;99835.21;1669611;85;21410;-81
2022/03/21 02:50:01;;;;;;;25.57;12.05;;;;;;;-4.43;57.44;99829.55;1669908;85;21040;-80
2022/03/21 02:52:30;;;;;;;27.40;12.95;;;;;;;-4.45;57.36;99830.74;1669916;85;21011;-80
2022/03/21 02:54:57;;;;;;;30.05;12.75;;;;;;;-4.49;57.61;99833.07;1672379;84;21029;-81
2022/03/21 02:57:24;;;;;;;28.35;13.05;;;;;;;-4.56;57.36;99827.92;1697732;84;21422;-81
2022/03/21 02:59:50;;;;;;;27.52;13.15;;;;;;;-4.52;57.31;99833.78;1698051;84;21044;-80
2022/03/21 03:02:17;;;;;;;28.90;13.35;;;;;;;-4.53;57.51;99828.11;1697743;84;20981;-81
2022/03/21 03:04:43;;;;;;;22.93;11.53;;;;;;;-4.54;57.57;99831.09;1697868;84;20978;-81
2022/03/21 03:07:11;;;;;;;31.77;13.20;;;;;;;-4.53;57.89;99829.41;1695503;84;21020;-81
2022/03/21 03:09:38;;;;;;;27.17;13.20;;;;;;;-4.58;57.93;99830.80;1669669;86;21036;-81
2022/03/21 03:12:06;;;;;;;25.88;12.05;;;;;;;-4.59;57.95;99835.48;1669880;86;21454;-82
2022/03/21 03:14:32;;;;;;;26.93;12.75;;;;;;;-4.61;57.95;99833.22;1669666;85;21447;-81
2022/03/21 03:16:59;;;;;;;29.27;14.30;;;;;;;-4.57;57.88;99833.48;1682463;84;21000;-82
2022/03/21 03:19:26;;;;;;;28.77;13.22;;;;;;;-4.53;57.84;99835.88;1680638;84;21007;-81
2022/03/21 03:21:53;;;;;;;26.55;12.65;;;;;;;-4.57;58.75;99832.19;1701247;84;21331;-82
2022/03/21 03:24:24;;;;;;;29.60;13.38;;;;;;;-4.59;58.01;99822.16;1685198;84;21040;-82
2022/03/21 03:26:51;;;;;;;28.10;12.73;;;;;;;-4.59;58.50;99832.51;1701385;84;21028;-81
2022/03/21 03:29:18;;;;;;;25.97;12.37;;;;;;;-4.65;58.62;99834.73;1701424;84;21021;-83
2022/03/21 03:31:45;;;;;;;29.92;12.73;;;;;;;-4.66;58.60;99835.50;1693852;84;21533;-82
2022/03/21 03:34:12;;;;;;;21.77;11.15;;;;;;;-4.65;58.81;99832.14;1674628;84;21505;-81
2022/03/21 03:36:38;;;;;;;21.70;11.53;;;;;;;-4.62;58.80;99832.30;1672925;85;21046;-82
2022/03/21 03:39:05;;;;;;;25.25;12.03;;;;;;;-4.59;58.47;99826.04;1673326;86;21094;-82
2022/03/21 03:41:32;;;;;;;31.55;11.57;;;;;;;-4.59;58.53;99835.48;1673314;85;21456;-82
2022/03/21 03:43:59;;;;;;;24.52;11.97;;;;;;;-4.62;58.53;99840.07;1680642;84;21036;-82
2022/03/21 03:46:25;;;;;;;26.10;11.95;;;;;;;-4.67;58.85;99837.61;1701422;84;21080;-81
2022/03/21 03:48:54;;;;;;;22.75;11.83;;;;;;;-4.69;58.82;99840.52;1701347;84;21069;-81
2022/03/21 03:51:21;;;;;;;23.83;11.18;;;;;;;-4.71;58.73;99839.12;1701277;84;21040;-81
2022/03/21 03:53:47;;;;;;;21.55;11.28;;;;;;;-4.70;59.08;99840.02;1700430;84;20965;-81
2022/03/21 03:56:14;;;;;;;22.70;11.30;;;;;;;-4.71;58.61;99845.59;1701319;84;21020;-82
2022/03/21 03:58:41;;;;;;;26.33;11.45;;;;;;;-4.68;59.50;99842.30;1701147;84;21406;-82
2022/03/21 04:01:08;;;;;;;26.37;12.50;;;;;;;-4.66;58.75;99844.56;1701472;84;21045;-82
2022/03/21 04:03:46;;;;;;;24.27;11.15;;;;;;;-4.67;59.58;99849.25;1679396;84;21000;-81
2022/03/21 04:06:22;;;;;;;24.15;12.07;;;;;;;-4.66;59.63;99846.76;1673193;85;20985;-81
2022/03/21 04:08:51;;;;;;;22.15;11.15;;;;;;;-4.68;59.71;99850.96;1673265;85;21024;-81
2022/03/21 04:11:19;;;;;;;30.27;12.07;;;;;;;-4.76;61.20;99841.82;1673664;84;21023;-81
2022/03/21 04:13:46;;;;;;;24.43;10.53;;;;;;;-4.78;60.53;99846.90;1673234;86;21039;-81
2022/03/21 04:16:14;;;;;;;25.08;11.83;;;;;;;-4.73;60.50;99844.61;1673048;85;21534;-82
2022/03/21 04:18:40;;;;;;;24.07;10.88;;;;;;;-4.72;59.94;99845.09;1673051;85;21505;-82
2022/03/21 04:21:07;;;;;;;23.42;10.70;;;;;;;-4.69;60.15;99850.86;1690636;84;21021;-82
2022/03/21 04:23:34;;;;;;;26.65;12.25;;;;;;;-4.66;60.14;99845.47;1701204;84;21101;-81
2022/03/21 04:26:00;;;;;;;26.65;12.00;;;;;;;-4.60;60.03;99858.28;1700954;84;21055;-82
2022/03/21 04:28:27;;;;;;;27.60;12.73;;;;;;;-4.60;59.49;99855.31;1700961;84;21108;-81
2022/03/21 04:30:53;;;;;;;32.28;14.25;;;;;;;-4.58;58.91;99853.70;1701371;84;20993;-82
2022/03/21 04:33:21;;;;;;;31.25;13.45;;;;;;;-4.52;58.88;99860.53;1678044;84;21465;-82
2022/03/21 04:35:48;;;;;;;26.35;12.85;;;;;;;-4.52;59.39;99855.77;1673654;84;21404;-83
2022/03/21 04:38:15;;;;;;;31.27;13.05;;;;;;;-4.51;58.94;99851.09;1673228;86;21018;-83
2022/03/21 04:40:48;;;;;;;26.50;12.98;;;;;;;-4.51;59.35;99857.17;1684373;84;21064;-82
2022/03/21 04:43:17;;;;;;;26.10;12.17;;;;;;;-4.55;59.16;99850.02;1701542;84;21072;-82
2022/03/21 04:45:46;;;;;;;32.10;13.18;;;;;;;-4.53;59.11;99847.10;1701282;84;21017;-81
2022/03/21 04:48:14;;;;;;;22.52;12.18;;;;;;;-4.48;59.10;99846.11;1701266;84;21045;-82
2022/03/21 04:50:41;;;;;;;26.85;12.18;;;;;;;-4.47;59.10;99850.48;1690160;84;21473;-82
2022/03/21 04:53:08;;;;;;;27.42;11.63;;;;;;;-4.47;60.36;99841.42;1673048;86;21000;-82
2022/03/21 04:55:35;;;;;;;28.07;11.20;;;;;;;-4.48;59.14;99847.41;1673149;85;21470;-82
2022/03/21 04:58:02;;;;;;;23.73;11.95;;;;;;;-4.46;58.95;99837.12;1673327;85;21064;-82
2022/03/21 05:00:28;;;;;;;22.80;11.08;;;;;;;-4.47;59.11;99836.24;1673788;84;21419;-83
2022/03/21 05:02:56;;;;;;;26.07;11.38;;;;;;;-4.45;59.31;99838.51;1673875;84;21501;-82
2022/03/21 05:05:25;;;;;;;23.40;11.30;;;;;;;-4.47;59.27;99840.52;1673188;85;21422;-82
2022/03/21 05:07:53;;;;;;;23.02;10.53;;;;;;;-4.49;58.77;99843.00;1672868;85;21013;-82
2022/03/21 05:10:23;;;;;;;20.90;11.05;;;;;;;-4.54;59.62;99834.06;1698660;84;21021;-82
2022/03/21 05:12:51;;;;;;;20.40;10.78;;;;;;;-4.49;58.98;99834.36;1643323;86;21068;-82
2022/03/21 05:15:18;;;;;;;23.07;10.98;;;;;;;-4.48;58.70;99830.58;1660674;86;20982;-81
2022/03/21 05:17:44;;;;;;;20.10;11.18;;;;;;;-4.44;58.46;99830.36;1660689;86;21424;-82
2022/03/21 05:20:16;;;;;;;24.12;11.65;;;;;;;-4.45;58.48;99832.03;1637507;86;21392;-82
2022/03/21 05:30:57;;;;;;;23.85;11.20;;;;;;;-4.46;58.52;99834.14;1660352;85;21058;-81
2022/03/21 05:30:59;;;;;;;25.43;12.35;;;;;;;-4.34;58.23;99835.28;1649377;86;21433;-81
2022/03/21 05:36:12;;;;;;;25.85;12.95;;;;;;;-4.23;57.96;99838.52;1647718;87;21035;-80
2022/03/21 05:38:38;;;;;;;27.20;13.70;;;;;;;-4.19;57.71;99841.76;1651383;85;21063;-80
2022/03/21 05:41:05;;;;;;;27.00;12.58;;;;;;;-4.15;57.67;99850.20;1679512;85;21027;-80
2022/03/21 05:43:33;;;;;;;30.08;14.00;;;;;;;-4.17;58.74;99844.44;1679203;85;21055;-81
2022/03/21 05:46:01;;;;;;;31.33;14.90;;;;;;;-4.13;58.38;99845.12;1675996;86;21063;-80
2022/03/21 05:51:16;;;;;;;32.58;15.10;;;;;;;-3.98;58.18;99858.09;1649180;87;20988;-81
2022/03/21 05:53:44;;;;;;;32.93;15.90;;;;;;;-3.89;57.55;99859.94;1649182;87;21024;-81
2022/03/21 05:56:14;;;;;;;33.02;15.38;;;;;;;-3.87;58.83;99866.47;1657695;85;21037;-81
2022/03/21 05:58:42;;;;;;;33.42;16.12;;;;;;;-3.81;58.47;99858.18;1672562;85;21072;-81
2022/03/21 06:01:14;;;;;;;42.35;17.42;;;;;;;-3.75;57.91;99861.12;1649201;87;21076;-81
2022/03/21 06:03:41;;;;;;;35.50;16.97;;;;;;;-3.71;58.50;99862.70;1649082;87;21051;-81
2022/03/21 06:06:09;;;;;;;30.85;15.20;;;;;;;-3.62;58.28;99870.10;1649582;85;20996;-82
2022/03/21 06:08:36;;;;;;;35.23;15.43;;;;;;;-3.52;57.88;99869.34;1649191;86;21080;-82
2022/03/21 06:11:08;;;;;;;39.60;16.55;;;;;;;-3.39;57.65;99875.72;1663513;85;21020;-84
2022/03/21 06:13:38;;;;;;;35.50;15.83;;;;;;;-3.28;57.54;99872.42;1663724;85;21430;-81
2022/03/21 06:16:06;;;;;;;29.87;14.98;;;;;;;-3.17;57.74;99872.16;1660958;85;21075;-81
2022/03/21 06:18:36;;;;;;;26.52;14.00;;;;;;;-3.09;58.21;99878.25;1659382;85;21028;-80
2022/03/21 06:21:05;;;;;;;29.12;14.25;;;;;;;-3.01;57.85;99872.58;1656964;86;21103;-81
2022/03/21 06:23:33;;;;;;;27.58;13.83;;;;;;;-2.91;57.32;99873.57;1670322;86;21035;-81
2022/03/21 06:26:00;;;;;;;33.60;13.43;;;;;;;-2.83;57.03;99863.22;1662056;86;21371;-82
2022/03/21 06:28:29;;;;;;;30.60;14.38;;;;;;;-2.75;57.25;99869.25;1652452;86;21030;-82
2022/03/21 06:30:56;;;;;;;25.43;13.03;;;;;;;-2.63;57.15;99879.41;1651490;86;21116;-82
2022/03/21 06:33:27;;;;;;;28.23;13.10;;;;;;;-2.55;56.74;99870.30;1650421;86;21430;-82
2022/03/21 06:35:56;;;;;;;25.37;14.07;;;;;;;-2.45;56.90;99870.41;1652149;86;21020;-82
2022/03/21 06:38:23;;;;;;;30.82;13.62;;;;;;;-2.32;56.33;99864.15;1646689;86;21000;-82
2022/03/21 06:40:50;;;;;;;28.12;13.38;;;;;;;-2.23;55.96;99871.52;1656479;86;21028;-83
2022/03/21 06:43:20;;;;;;;26.55;13.50;;;;;;;-2.10;55.77;99866.55;1655534;86;20980;-83
2022/03/21 06:45:54;;;;;;;26.40;12.35;;;;;;;-1.99;55.61;99870.61;1686943;84;20993;-83
2022/03/21 06:48:23;;;;;;;37.45;14.73;;;;;;;-1.88;55.27;99867.23;1674742;84;20984;-81
2022/03/21 06:50:52;;;;;;;35.95;18.40;;;;;;;-1.71;54.93;99868.52;1681181;84;21040;-82
2022/03/21 06:53:19;;;;;;;23.12;10.82;;;;;;;-1.59;54.29;99871.72;1697771;84;21032;-82
2022/03/21 06:55:46;;;;;;;26.97;12.95;;;;;;;-1.46;53.25;99851.10;1697871;84;21040;-82
2022/03/21 06:58:14;;;;;;;28.65;12.88;;;;;;;-1.31;53.37;99856.57;1697453;84;21000;-83
2022/03/21 07:00:45;;;;;;;25.30;13.22;;;;;;;-1.21;53.03;99857.09;1673717;84;21341;-85
2022/03/21 07:03:17;;;;;;;34.25;14.55;;;;;;;-1.05;52.63;99855.64;1669795;85;21024;-81
2022/03/21 07:05:45;;;;;;;27.30;14.05;;;;;;;-0.93;52.88;99864.02;1669838;86;20993;-82
2022/03/21 07:08:12;;;;;;;28.85;14.85;;;;;;;-0.80;52.82;99862.88;1680641;84;21130;-81
2022/03/21 07:10:40;;;;;;;29.52;14.78;;;;;;;-0.63;52.76;99866.25;1679928;84;21020;-83
2022/03/21 07:13:08;;;;;;;27.90;14.53;;;;;;;-0.50;52.81;99862.49;1669946;85;20981;-83
2022/03/21 07:15:35;;;;;;;28.92;14.18;;;;;;;-0.34;52.16;99849.75;1639633;87;21068;-87
2022/03/21 07:18:02;;;;;;;25.30;13.68;;;;;;;-0.16;51.38;99862.69;1635250;86;21060;-87
2022/03/21 07:20:29;;;;;;;28.52;14.07;;;;;;;-0.03;51.51;99854.99;1674367;86;21024;-85
2022/03/21 07:22:57;;;;;;;31.17;14.40;;;;;;;0.13;51.15;99845.25;1674476;85;21087;-85
2022/03/21 07:25:27;;;;;;;29.00;13.03;;;;;;;0.28;51.40;99850.20;1674364;85;21020;-85
2022/03/21 07:27:54;;;;;;;30.95;13.78;;;;;;;0.37;51.22;99849.28;1674282;85;21040;-85
2022/03/21 07:30:21;;;;;;;29.55;14.38;;;;;;;0.50;51.17;99853.72;1681372;84;21008;-85
2022/03/21 07:32:48;;;;;;;29.35;14.40;;;;;;;0.62;50.16;99848.98;1684651;84;20999;-87
2022/03/21 07:35:15;;;;;;;31.40;15.32;;;;;;;0.73;50.61;99852.44;1652407;84;21055;-83
2022/03/21 07:37:46;;;;;;;29.92;15.05;;;;;;;0.83;50.29;99844.14;1680553;84;21035;-87
2022/03/21 07:40:14;;;;;;;28.92;14.40;;;;;;;0.94;49.98;99847.19;1684615;84;21035;-87
2022/03/21 07:42:43;;;;;;;29.82;14.18;;;;;;;1.05;50.11;99841.09;1679597;84;21462;-80
2022/03/21 07:47:44;;;;;;;32.28;14.85;;;;;;;1.38;47.24;99838.39;1666394;85;21011;-80
2022/03/21 07:50:11;;;;;;;24.87;13.38;;;;;;;1.52;48.62;99832.36;1685446;85;21070;-80
2022/03/21 07:52:37;;;;;;;27.55;14.75;;;;;;;1.65;48.51;99839.82;1685670;85;20968;-80
2022/03/21 07:55:05;;;;;;;27.98;13.80;;;;;;;1.78;46.87;99833.75;1699861;84;21123;-80
2022/03/21 07:57:32;;;;;;;25.35;12.98;;;;;;;1.91;47.58;99831.14;1702101;83;21470;-80
2022/03/21 07:59:58;;;;;;;27.32;13.65;;;;;;;2.05;47.50;99829.00;1702380;84;21064;-80
2022/03/21 08:02:27;;;;;;;22.25;12.58;;;;;;;2.14;47.42;99824.48;1702436;83;21335;-80
2022/03/21 08:04:53;;;;;;;22.17;11.22;;;;;;;2.28;46.78;99830.21;1702536;84;21032;-80
2022/03/21 08:07:19;;;;;;;19.05;10.82;;;;;;;2.41;43.21;99823.66;1678616;84;21004;-80
2022/03/21 08:09:49;;;;;;;15.30;8.88;;;;;;;2.55;45.46;99821.48;1674415;86;21055;-80
2022/03/21 08:12:15;;;;;;;17.73;10.68;;;;;;;2.66;45.33;99819.22;1674420;85;20984;-80
2022/03/21 08:14:42;;;;;;;18.80;10.38;;;;;;;2.75;44.82;99824.31;1690935;84;21032;-80
2022/03/21 08:17:09;;;;;;;14.10;8.50;;;;;;;2.87;44.98;99817.70;1702485;84;21358;-80
2022/03/21 08:19:36;;;;;;;16.12;8.25;;;;;;;2.99;41.54;99820.68;1725606;83;21012;-80
2022/03/21 08:22:07;;;;;;;15.55;7.83;;;;;;;3.10;40.65;99818.40;1701294;83;21036;-80
2022/03/21 08:24:36;;;;;;;18.62;8.20;;;;;;;3.20;41.66;99815.62;1687393;84;21321;-80
2022/03/21 08:27:00;;;;;;;15.63;8.78;;;;;;;3.39;39.93;99817.06;1673028;85;21000;-80
2022/03/21 08:29:26;;;;;;;16.30;9.30;;;;;;;3.50;40.93;99807.30;1673168;86;21037;-80
2022/03/21 08:31:53;;;;;;;15.93;8.90;;;;;;;3.58;39.47;99812.77;1673150;85;20984;-80
2022/03/21 08:34:19;;;;;;;18.55;9.45;;;;;;;3.67;40.22;99806.47;1673210;86;21060;-80
2022/03/21 08:36:45;;;;;;;13.03;8.40;;;;;;;3.77;39.62;99803.66;1691084;84;21064;-80
2022/03/21 08:39:12;;;;;;;15.10;8.83;;;;;;;3.90;39.32;99800.53;1701106;84;21012;-80
2022/03/21 08:41:38;;;;;;;14.15;8.10;;;;;;;3.99;40.51;99799.91;1701042;84;21052;-80
2022/03/21 08:44:05;;;;;;;13.98;8.48;;;;;;;4.06;39.91;99793.95;1695195;84;21418;-80
2022/03/21 08:46:32;;;;;;;14.47;8.35;;;;;;;4.23;37.81;99794.39;1673129;86;21429;-80
2022/03/21 08:51:46;;;;;;;17.82;11.10;;;;;;;4.45;38.90;99783.53;1642957;86;38714;-80
2022/03/21 08:54:13;;;;;;;16.00;9.80;;;;;;;4.71;37.72;99783.26;1680488;84;21057;-81
2022/03/21 08:56:41;;;;;;;32.85;16.27;;;;;;;4.76;38.84;99773.74;1701294;84;21601;-80
2022/03/21 08:59:07;;;;;;;38.55;20.50;;;;;;;4.85;39.00;99771.74;1701193;84;20984;-80
2022/03/21 09:01:34;;;;;;;16.23;10.30;;;;;;;4.92;38.79;99765.78;1701389;84;21017;-80
2022/03/21 09:04:01;;;;;;;17.32;9.40;;;;;;;4.98;37.47;99764.59;1701226;84;21091;-81
2022/03/21 09:06:31;;;;;;;15.85;8.78;;;;;;;5.08;38.28;99759.55;1693302;84;21012;-81
2022/03/21 09:08:59;;;;;;;15.70;9.83;;;;;;;5.25;35.75;99758.58;1673085;85;20996;-80
2022/03/21 09:11:26;;;;;;;14.78;9.35;;;;;;;5.37;35.56;99755.31;1673012;86;21072;-80
2022/03/21 09:13:52;;;;;;;14.00;8.28;;;;;;;5.49;35.94;99752.91;1673002;85;21040;-80
2022/03/21 09:16:19;;;;;;;16.97;9.10;;;;;;;5.58;35.71;99748.28;1698247;84;20993;-80
2022/03/21 09:18:45;;;;;;;14.70;9.68;;;;;;;5.63;35.67;99742.67;1701245;84;21525;-79
2022/03/21 09:21:13;;;;;;;14.18;8.75;;;;;;;5.71;34.39;99741.92;1701177;84;21004;-79
2022/03/21 09:23:40;;;;;;;13.30;8.78;;;;;;;5.87;34.11;99746.62;1701381;84;21053;-79
2022/03/21 09:26:11;;;;;;;18.20;9.38;;;;;;;6.02;33.21;99735.45;1680103;84;21024;-79
2022/03/21 09:28:44;;;;;;;14.18;9.30;;;;;;;6.13;33.60;99745.31;1673015;85;20989;-79
2022/03/21 09:31:07;;;;;;;14.38;9.35;;;;;;;6.30;33.55;99737.69;1672820;85;21029;-79
2022/03/21 09:33:36;;;;;;;15.53;10.00;;;;;;;6.45;33.59;99735.74;1673017;86;21482;-79
2022/03/21 09:36:04;;;;;;;15.95;9.75;;;;;;;6.58;33.43;99736.81;1673144;86;21051;-79
2022/03/21 09:38:32;;;;;;;17.57;10.43;;;;;;;6.65;33.93;99737.38;1699449;84;21435;-79
2022/03/21 09:41:00;;;;;;;15.72;10.30;;;;;;;6.73;34.20;99730.44;1701257;84;21020;-79
2022/03/21 09:43:26;;;;;;;17.32;10.20;;;;;;;6.79;33.24;99725.70;1701458;84;20987;-79
2022/03/21 09:45:57;;;;;;;20.57;11.50;;;;;;;6.92;32.05;99727.16;1701495;84;21091;-79
2022/03/21 09:48:28;;;;;;;20.48;11.28;;;;;;;7.08;32.45;99724.30;1677458;84;20996;-79
2022/03/21 09:50:56;;;;;;;17.67;10.72;;;;;;;7.21;32.37;99719.64;1673298;86;21052;-79
2022/03/21 09:53:25;;;;;;;16.35;10.90;;;;;;;7.32;31.55;99717.14;1673305;86;21442;-79
2022/03/21 09:55:53;;;;;;;18.77;11.60;;;;;;;7.36;32.19;99716.73;1673166;86;21040;-80
2022/03/21 09:58:20;;;;;;;20.08;11.00;;;;;;;7.41;33.06;99729.53;1694880;84;20957;-80
2022/03/21 10:00:49;;;;;;;24.70;11.20;;;;;;;7.42;32.51;99720.75;1701544;84;21020;-80
2022/03/21 10:03:17;;;;;;;22.22;11.88;;;;;;;7.44;32.64;99722.09;1701242;84;21032;-79
2022/03/21 10:05:46;;;;;;;18.55;11.30;;;;;;;7.44;32.47;99708.91;1701463;84;20957;-79
2022/03/21 10:08:23;;;;;;;17.07;11.03;;;;;;;7.49;32.29;99706.77;1682650;84;21072;-80
2022/03/21 10:11:03;;;;;;;20.70;11.30;;;;;;;7.59;31.94;99700.24;1673193;85;21068;-80
2022/03/21 10:13:36;;;;;;;19.32;11.28;;;;;;;7.68;31.68;99706.07;1673285;86;21064;-80
2022/03/21 10:16:12;;;;;;;16.70;10.68;;;;;;;7.75;31.61;99700.86;1673149;86;21048;-80
2022/03/21 10:19:00;;;;;;;21.60;11.05;;;;;;;7.93;31.40;99693.54;1693740;84;20986;-80
2022/03/21 10:21:27;;;;;;;20.17;10.60;;;;;;;8.10;31.37;99687.50;1693018;84;21459;-81
2022/03/21 10:24:06;;;;;;;21.95;10.50;;;;;;;8.24;31.46;99677.06;1692719;85;20993;-79
2022/03/21 10:26:38;;;;;;;16.95;10.00;;;;;;;8.36;30.08;99676.27;1692970;84;21041;-80
2022/03/21 10:29:10;;;;;;;14.63;9.55;;;;;;;8.44;30.63;99670.57;1692541;84;21060;-80
2022/03/21 10:31:41;;;;;;;16.32;9.83;;;;;;;8.57;30.49;99669.38;1669808;86;21451;-80
2022/03/21 10:34:12;;;;;;;14.85;9.75;;;;;;;8.67;30.26;99670.28;1669465;85;20993;-79
2022/03/21 10:37:06;;;;;;;16.57;9.53;;;;;;;8.78;30.36;99660.67;1669663;85;21157;-80
2022/03/21 10:39:36;;;;;;;15.00;9.58;;;;;;;8.87;29.36;99654.53;1669881;86;20976;-80
2022/03/21 10:42:06;;;;;;;14.58;8.90;;;;;;;8.88;28.58;99647.04;1670492;84;21072;-80
2022/03/21 10:44:35;;;;;;;18.23;9.33;;;;;;;8.98;30.14;99648.84;1669785;85;21123;-80
2022/03/21 10:47:05;;;;;;;14.15;9.85;;;;;;;9.31;28.73;99644.09;1669906;85;21004;-80
2022/03/21 10:49:44;;;;;;;19.15;9.15;;;;;;;10.33;28.02;99645.87;1672630;84;21114;-79
2022/03/21 10:52:17;;;;;;;14.45;9.38;;;;;;;11.52;26.37;99639.64;1697345;84;21422;-82
2022/03/21 10:54:50;;;;;;;16.65;10.63;;;;;;;12.80;27.17;99627.84;1698175;84;21025;-78
2022/03/21 10:57:38;;;;;;;17.40;11.80;;;;;;;13.92;25.80;99625.36;1698141;84;21375;-78
2022/03/21 11:00:23;;;;;;;17.15;10.55;;;;;;;14.86;24.83;99609.86;1688925;84;21164;-78
2022/03/21 11:03:09;;;;;;;;;;;;;;;15.73;24.04;99604.33;1672352;86;21395;-78
2022/03/21 11:05:39;;;;;;;11.80;9.33;;;;;;;15.77;19.12;99600.63;1669725;86;20416;-78
2022/03/21 11:08:08;;;;;;;16.65;9.58;;;;;;;16.61;18.16;99594.45;1670215;85;21016;-78
2022/03/21 11:10:36;;;;;;;14.60;9.95;;;;;;;17.50;18.06;99590.00;1669802;86;21099;-79
2022/03/21 11:13:06;;;;;;;15.88;10.50;;;;;;;18.44;20.76;99578.31;1690057;84;21069;-78
2022/03/21 11:15:36;;;;;;;13.30;9.23;;;;;;;19.35;20.07;99578.97;1697639;84;21103;-78
2022/03/21 11:18:05;;;;;;;13.48;10.18;;;;;;;20.16;20.04;99572.47;1697870;84;21001;-77
2022/03/21 11:20:32;;;;;;;9.95;8.60;;;;;;;20.39;16.88;99567.86;1697801;84;21088;-77
2022/03/21 11:23:01;;;;;;;11.75;8.55;;;;;;;20.50;15.77;99560.66;1697896;84;20993;-76
2022/03/21 11:25:35;;;;;;;10.70;8.23;;;;;;;20.80;15.96;99569.60;1675414;84;21073;-76
2022/03/21 11:28:41;;;;;;;9.53;8.40;;;;;;;20.81;16.11;99569.14;1629816;87;21267;-77
2022/03/21 11:31:44;;;;;;;10.20;8.73;;;;;;;21.27;16.43;99559.83;1669637;85;21033;-77
2022/03/21 11:34:40;;;;;;;9.95;8.60;;;;;;;21.84;15.27;99550.75;1669743;85;21048;-79
2022/03/21 11:37:30;;;;;;;10.08;8.63;;;;;;;21.98;14.21;99554.08;1665497;85;21036;-78
2022/03/21 11:40:36;;;;;;;10.88;9.13;;;;;;;22.23;14.75;99551.44;1669551;85;21418;-78
2022/03/21 11:43:25;;;;;;;16.73;9.45;;;;;;;22.73;14.81;99550.16;1669792;86;21542;-78
2022/03/21 11:45:57;;;;;;;13.60;9.33;;;;;;;22.73;14.81;99550.16;1669821;86;21013;-78
2022/03/21 11:48:26;;;;;;;11.70;9.20;;;;;;;23.00;14.40;99539.63;1670263;84;21537;-76
2022/03/21 11:51:01;;;;;;;12.03;8.93;;;;;;;23.23;14.37;99536.57;1669822;85;21052;-78